CheckWX is a tool to help pilots better visualize weather data.  It is not intended as a substitute for an official pre-flight weather briefing.

07:20:35 UTC

KSQL METAR
San Carlos Airport
San Carlos, California, USA
Current

26 mins ago

KSQL 240655Z AUTO 00000KT 10SM CLR 10/08 A3040 RMK AO2
Observed
Feb-24 @ 06:55 UTC
Visibility
10 SM
Flight Rules
VFR
Cloud Levels
  • Clear skies
Temperature
10°C / 50°F
Dewpoint
C / 46°F
Humidity
88%
Altimeter
30.4" Hg
Pressure
1029.42 hPa
Previous

46 mins ago

KSQL 240635Z AUTO 00000KT 10SM CLR 10/08 A3040 RMK AO2
Observed
Feb-24 @ 06:35 UTC
Visibility
10 SM
Flight Rules
VFR
Cloud Levels
  • Clear skies
Temperature
10°C / 50°F
Dewpoint
C / 46°F
Humidity
88%
Altimeter
30.4" Hg
Pressure
1029.42 hPa
Previous

1 hour ago

KSQL 240620Z AUTO 20003KT 10SM CLR 10/08 A3040 RMK AO2
Observed
Feb-24 @ 06:20 UTC
Wind
  • 200° at 3 KTS
Visibility
10 SM
Flight Rules
VFR
Cloud Levels
  • Clear skies
Temperature
10°C / 50°F
Dewpoint
C / 46°F
Humidity
88%
Altimeter
30.4" Hg
Pressure
1029.42 hPa